CDT,Max TemperatureF,Mean TemperatureF,Min TemperatureF,Max Dew PointF,MeanDew PointF,Min DewpointF,Max Humidity, Mean Humidity, Min Humidity, Max Sea Level PressureIn, Mean Sea Level PressureIn, Min Sea Level PressureIn, Max VisibilityMiles, Mean VisibilityMiles, Min VisibilityMiles, Max Wind SpeedMPH, Mean Wind SpeedMPH, Max Gust SpeedMPH,PrecipitationIn, CloudCover, Events, WindDirDegrees
2012-10-1,66,54,41,45,36,27,72,48,23,30.14,30.07,30.00,10,10,5,22,14,26,0.00,1,,324
2012-10-2,77,56,35,37,32,28,87,46,19,30.00,29.81,29.70,10,10,5,29,12,39,0.00,0,,183
2012-10-3,55,48,41,41,39,36,87,67,51,29.97,29.87,29.81,10,10,9,34,17,44,0.00,3,Rain,20
2012-10-4,41,36,32,37,33,27,100,86,65,30.27,30.15,29.96,10,9,2,33,25,47,0.31,7,Rain-Snow,308
2012-10-5,39,32,24,32,26,23,100,78,56,30.32,30.27,30.24,10,10,5,23,13,29,0.03,6,Rain,304
2012-10-6,46,36,26,32,25,18,100,71,34,30.40,30.31,30.20,10,10,4,16,10,20,0.03,3,Rain-Snow,300
2012-10-7,55,39,23,28,23,18,86,57,25,30.19,29.95,29.77,10,10,9,20,10,29,0.00,2,,215
2012-10-8,57,48,39,41,35,28,81,61,44,29.77,29.66,29.56,10,10,10,32,12,40,0.00,5,Rain,251
2012-10-9,44,38,32,32,28,21,100,65,39,30.06,29.90,29.75,10,10,7,29,15,43,0.00,6,Rain,297
2012-10-10,59,44,28,37,29,25,100,71,31,30.06,29.96,29.75,10,10,7,20,8,31,0.00,5,Rain,231
2012-10-11,44,34,23,37,28,18,100,76,37,30.39,30.22,29.94,10,10,8,18,12,22,0.00,2,,339
2012-10-12,53,36,19,25,19,14,100,62,22,30.39,30.20,29.87,10,10,8,29,10,39,0.00,0,,162
2012-10-13,71,53,35,39,36,32,100,64,29,29.86,29.72,29.66,10,10,8,23,13,29,0.00,0,,254
2012-10-14,57,44,32,37,34,30,100,72,44,29.98,29.93,29.86,10,10,7,14,7,20,0.00,0,,322
2012-10-15,71,50,28,43,35,28,100,62,29,29.94,29.76,29.59,10,8,3,23,9,31,0.00,2,Rain,181
2012-10-16,71,60,48,54,47,43,100,67,38,29.61,29.46,29.27,10,10,3,14,8,20,0.00,2,Rain,228
2012-10-17,57,49,41,54,44,39,100,90,63,29.32,29.26,29.22,10,8,3,37,17,48,0.86,7,Rain,280
2012-10-18,46,44,41,46,42,39,100,98,93,29.65,29.40,29.24,10,5,1,40,33,55,1.49,8,Rain,317
2012-10-19,41,39,37,41,39,37,100,98,93,29.81,29.77,29.69,10,10,5,36,23,47,0.01,8,Rain,329
2012-10-20,57,44,32,48,42,32,100,89,63,29.75,29.67,29.60,10,8,0,18,9,21,0.00,4,Fog,154
2012-10-21,53,46,39,50,43,39,100,88,58,30.04,29.84,29.66,10,8,4,23,11,30,0.00,2,,13
2012-10-22,50,44,39,45,38,32,100,80,66,30.05,29.99,29.84,10,10,9,20,13,25,0.00,4,,32
2012-10-23,55,50,44,55,50,45,100,100,93,29.86,29.72,29.62,10,6,0,18,11,24,0.00,7,Fog-Rain,124
2012-10-24,46,40,33,45,36,28,100,89,75,30.03,29.95,29.85,10,10,9,20,12,25,0.00,4,Rain,317
2012-10-25,37,34,32,28,25,21,87,70,56,30.22,30.07,29.98,10,10,10,26,17,38,0.00,6,Rain,311
2012-10-26,35,30,24,23,20,16,80,59,44,30.35,30.30,30.22,10,10,9,22,15,30,0.00,8,Rain,278
2012-10-27,35,26,17,32,23,16,100,85,48,30.30,30.25,30.20,10,9,1,17,7,21,0.31,6,Rain-Snow,94
2012-10-28,35,30,26,36,31,27,100,100,100,30.25,30.20,30.10,10,7,2,17,12,,0.00,8,,56
2012-10-29,53,42,32,36,35,32,100,81,47,30.11,30.08,30.06,10,10,7,14,10,18,0.00,3,,113
2012-10-30,48,40,32,41,36,32,100,90,66,30.10,30.07,30.03,10,9,6,17,10,24,0.00,7,Rain,113
2012-10-31,59,44,28,45,36,28,100,87,55,30.08,30.00,29.93,10,9,3,21,8,28,0.00,4,,185